RYR48YG GCFV-LIRP
Flight info
| Callsign | RYR48YG |
|---|---|
| Flight time | N/A |
| Altitude | 36000 |
| Route | KORAL UN871 ESS UG5 SAK UR975 FES UA411 ALR UG26 REQIN DCT BUKID DCT AJO A9 LIBLO L146 MOULE DCT XOPTA L146 ELB |
| Aircraft | B738/M-SDE3FGILRWY/SB1 |
Departure
| Time | 2026-05-06 09:19 |
|---|---|
| Airport | Fuerteventura Airport (GCFV) |
Arrival
| Time | N/A |
|---|---|
| Airport | Pisa International Airport (LIRP) |
| Time | Latitude | Longitude | Altitude | Speed | Heading |
|---|---|---|---|---|---|
| 2026-05-06 08:53 | 28.45121 | -13.86827 | 66 ft | 0 kts | 266° |
| 2026-05-06 09:10 | 28.45121 | -13.86813 | 65 ft | 4 kts | 266° |
| 2026-05-06 09:10 | 28.45123 | -13.86786 | 65 ft | 2 kts | 266° |
| 2026-05-06 09:11 | 28.45129 | -13.86759 | 65 ft | 4 kts | 231° |
| 2026-05-06 09:11 | 28.45150 | -13.86744 | 65 ft | 4 kts | 190° |
| 2026-05-06 09:11 | 28.45168 | -13.86742 | 65 ft | 1 kts | 181° |
| 2026-05-06 09:11 | 28.45171 | -13.86742 | 65 ft | 0 kts | 181° |
| 2026-05-06 09:12 | 28.45170 | -13.86742 | 65 ft | 0 kts | 181° |
| 2026-05-06 09:14 | 28.45169 | -13.86742 | 65 ft | 1 kts | 181° |
| 2026-05-06 09:15 | 28.45141 | -13.86741 | 65 ft | 8 kts | 172° |
| 2026-05-06 09:15 | 28.45088 | -13.86683 | 65 ft | 14 kts | 97° |
| 2026-05-06 09:15 | 28.45074 | -13.86585 | 65 ft | 12 kts | 150° |
| 2026-05-06 09:15 | 28.44998 | -13.86581 | 65 ft | 12 kts | 181° |
| 2026-05-06 09:16 | 28.44874 | -13.86585 | 65 ft | 21 kts | 181° |
| 2026-05-06 09:16 | 28.44723 | -13.86588 | 65 ft | 24 kts | 181° |
| 2026-05-06 09:16 | 28.44540 | -13.86588 | 65 ft | 29 kts | 179° |
| 2026-05-06 09:16 | 28.44326 | -13.86600 | 65 ft | 31 kts | 182° |
| 2026-05-06 09:17 | 28.44115 | -13.86609 | 65 ft | 29 kts | 181° |
| 2026-05-06 09:17 | 28.43922 | -13.86611 | 65 ft | 26 kts | 183° |
| 2026-05-06 09:17 | 28.43738 | -13.86620 | 65 ft | 28 kts | 181° |
| 2026-05-06 09:17 | 28.43536 | -13.86622 | 65 ft | 30 kts | 191° |
| 2026-05-06 09:18 | 28.43364 | -13.86651 | 65 ft | 23 kts | 181° |
| 2026-05-06 09:18 | 28.43266 | -13.86574 | 65 ft | 16 kts | 104° |
| 2026-05-06 09:18 | 28.43269 | -13.86468 | 65 ft | 13 kts | 62° |
| 2026-05-06 09:18 | 28.43382 | -13.86437 | 65 ft | 26 kts | 3° |
| 2026-05-06 09:19 | 28.43750 | -13.86426 | 65 ft | 78 kts | 5° |
| 2026-05-06 09:19 | 28.44455 | -13.86403 | 66 ft | 123 kts | 1° |
| 2026-05-06 09:19 | 28.45432 | -13.86380 | 204 ft | 149 kts | 1° |
| 2026-05-06 09:19 | 28.46507 | -13.86416 | 727 ft | 152 kts | 359° |
| 2026-05-06 09:20 | 28.47556 | -13.86465 | 1258 ft | 154 kts | 5° |
| 2026-05-06 09:20 | 28.48641 | -13.86209 | 1723 ft | 157 kts | 21° |
| 2026-05-06 09:20 | 28.49642 | -13.85649 | 2105 ft | 169 kts | 29° |
| 2026-05-06 09:20 | 28.50730 | -13.84966 | 2373 ft | 187 kts | 30° |
| 2026-05-06 09:21 | 28.51920 | -13.84211 | 2633 ft | 205 kts | 30° |
| 2026-05-06 09:21 | 28.53220 | -13.83384 | 2887 ft | 222 kts | 30° |
| 2026-05-06 09:21 | 28.54618 | -13.82494 | 3265 ft | 238 kts | 30° |
| 2026-05-06 09:21 | 28.56098 | -13.81550 | 3788 ft | 248 kts | 30° |
| 2026-05-06 09:22 | 28.57624 | -13.80577 | 4405 ft | 254 kts | 29° |
| 2026-05-06 09:22 | 28.59182 | -13.79582 | 5037 ft | 259 kts | 29° |
| 2026-05-06 09:22 | 28.60770 | -13.78568 | 5648 ft | 265 kts | 29° |
| 2026-05-06 09:22 | 28.62396 | -13.77528 | 6281 ft | 270 kts | 28° |
| 2026-05-06 09:23 | 28.64048 | -13.76473 | 6962 ft | 274 kts | 28° |
| 2026-05-06 09:23 | 28.65726 | -13.75401 | 7613 ft | 279 kts | 28° |
| 2026-05-06 09:23 | 28.67433 | -13.74310 | 8299 ft | 283 kts | 28° |
| 2026-05-06 09:23 | 28.69164 | -13.73215 | 8964 ft | 287 kts | 26° |
| 2026-05-06 09:24 | 28.70977 | -13.72210 | 9621 ft | 292 kts | 23° |
| 2026-05-06 09:24 | 28.72210 | -13.71577 | 10030 ft | 296 kts | 22° |
| 2026-05-06 09:24 | 28.74806 | -13.70292 | 10652 ft | 314 kts | 21° |
| 2026-05-06 09:24 | 28.76837 | -13.69279 | 11174 ft | 323 kts | 21° |
| 2026-05-06 09:25 | 28.78910 | -13.68238 | 11814 ft | 328 kts | 21° |
| 2026-05-06 09:25 | 28.81017 | -13.67173 | 12455 ft | 334 kts | 20° |
| 2026-05-06 09:25 | 28.83153 | -13.66089 | 13156 ft | 338 kts | 20° |
| 2026-05-06 09:25 | 28.85314 | -13.64990 | 13831 ft | 342 kts | 20° |
| 2026-05-06 09:26 | 28.87503 | -13.63873 | 14522 ft | 347 kts | 20° |
| 2026-05-06 09:26 | 28.89716 | -13.62743 | 15193 ft | 352 kts | 20° |
| 2026-05-06 09:26 | 28.91202 | -13.61980 | 15646 ft | 354 kts | 20° |
| 2026-05-06 09:26 | 28.93465 | -13.60826 | 16299 ft | 359 kts | 20° |
| 2026-05-06 09:27 | 28.95764 | -13.59667 | 16946 ft | 363 kts | 18° |
| 2026-05-06 09:27 | 28.98129 | -13.58631 | 17572 ft | 366 kts | 15° |
| 2026-05-06 09:27 | 29.00538 | -13.57670 | 18170 ft | 370 kts | 14° |
| 2026-05-06 09:27 | 29.02985 | -13.56694 | 18786 ft | 374 kts | 14° |
| 2026-05-06 09:28 | 29.05456 | -13.55691 | 19370 ft | 379 kts | 15° |
| 2026-05-06 09:28 | 29.07945 | -13.54667 | 19969 ft | 382 kts | 15° |
| 2026-05-06 09:28 | 29.10455 | -13.53628 | 20543 ft | 386 kts | 15° |
| 2026-05-06 09:28 | 29.12996 | -13.52571 | 21106 ft | 390 kts | 16° |
| 2026-05-06 09:29 | 29.15445 | -13.51162 | 21672 ft | 399 kts | 29° |
| 2026-05-06 09:29 | 29.17618 | -13.49141 | 22191 ft | 408 kts | 42° |
| 2026-05-06 09:29 | 29.19488 | -13.46671 | 22724 ft | 413 kts | 51° |
| 2026-05-06 09:29 | 29.21112 | -13.43932 | 23235 ft | 418 kts | 56° |
| 2026-05-06 09:30 | 29.22699 | -13.41135 | 23726 ft | 421 kts | 54° |
| 2026-05-06 09:30 | 29.24371 | -13.38344 | 23978 ft | 428 kts | 54° |
| 2026-05-06 09:30 | 29.26070 | -13.35542 | 24013 ft | 429 kts | 54° |
| 2026-05-06 09:30 | 29.27770 | -13.32745 | 24017 ft | 427 kts | 53° |
| 2026-05-06 09:31 | 29.29473 | -13.29964 | 24020 ft | 424 kts | 53° |
| 2026-05-06 09:31 | 29.31161 | -13.27201 | 24021 ft | 424 kts | 53° |
| 2026-05-06 09:31 | 29.32853 | -13.24425 | 24020 ft | 424 kts | 53° |
| 2026-05-06 09:31 | 29.34543 | -13.21653 | 24020 ft | 424 kts | 53° |
| 2026-05-06 09:32 | 29.36230 | -13.18883 | 24018 ft | 424 kts | 53° |
| 2026-05-06 09:32 | 29.37925 | -13.16111 | 24017 ft | 424 kts | 54° |
| 2026-05-06 09:32 | 29.39614 | -13.13338 | 24016 ft | 424 kts | 54° |
| 2026-05-06 09:32 | 29.41302 | -13.10559 | 24016 ft | 425 kts | 54° |
| 2026-05-06 09:33 | 29.42992 | -13.07778 | 24015 ft | 424 kts | 54° |
| 2026-05-06 09:33 | 29.44678 | -13.04999 | 24014 ft | 424 kts | 54° |
| 2026-05-06 09:33 | 29.46382 | -13.02189 | 24013 ft | 424 kts | 54° |
| 2026-05-06 09:33 | 29.48052 | -12.99430 | 24140 ft | 429 kts | 54° |
| 2026-05-06 09:34 | 29.49780 | -12.96571 | 24654 ft | 431 kts | 54° |
| 2026-05-06 09:34 | 29.51491 | -12.93736 | 25142 ft | 434 kts | 54° |
| 2026-05-06 09:34 | 29.53219 | -12.90870 | 25526 ft | 439 kts | 54° |
| 2026-05-06 09:34 | 29.54959 | -12.87986 | 25948 ft | 443 kts | 54° |
| 2026-05-06 09:35 | 29.56734 | -12.85066 | 26341 ft | 447 kts | 54° |
| 2026-05-06 09:35 | 29.58513 | -12.82124 | 26718 ft | 452 kts | 54° |
| 2026-05-06 09:35 | 29.60314 | -12.79137 | 27097 ft | 456 kts | 54° |
| 2026-05-06 09:35 | 29.62129 | -12.76117 | 27454 ft | 461 kts | 54° |
| 2026-05-06 09:36 | 29.63955 | -12.73074 | 27810 ft | 465 kts | 54° |
| 2026-05-06 09:36 | 29.65800 | -12.69997 | 28143 ft | 469 kts | 54° |
| 2026-05-06 09:36 | 29.67658 | -12.66896 | 28465 ft | 473 kts | 54° |
| 2026-05-06 09:36 | 29.69534 | -12.63762 | 28796 ft | 478 kts | 54° |
| 2026-05-06 09:37 | 29.71429 | -12.60597 | 29088 ft | 482 kts | 54° |
| 2026-05-06 09:37 | 29.73338 | -12.57403 | 29388 ft | 487 kts | 55° |
| 2026-05-06 09:37 | 29.75255 | -12.54172 | 29677 ft | 491 kts | 55° |
| 2026-05-06 09:37 | 29.77185 | -12.50915 | 29952 ft | 495 kts | 55° |
| 2026-05-06 09:38 | 29.79135 | -12.47620 | 30247 ft | 499 kts | 55° |
| 2026-05-06 09:38 | 29.81093 | -12.44307 | 30536 ft | 502 kts | 55° |
| 2026-05-06 09:38 | 29.83068 | -12.40964 | 30814 ft | 506 kts | 55° |
| 2026-05-06 09:38 | 29.85065 | -12.37615 | 31087 ft | 510 kts | 55° |
| 2026-05-06 09:39 | 29.87074 | -12.34228 | 31367 ft | 512 kts | 55° |
| 2026-05-06 09:39 | 29.89084 | -12.30827 | 31627 ft | 516 kts | 55° |
| 2026-05-06 09:39 | 29.91105 | -12.27397 | 31912 ft | 518 kts | 55° |
| 2026-05-06 09:39 | 29.93137 | -12.23943 | 32144 ft | 522 kts | 55° |
| 2026-05-06 09:40 | 29.95176 | -12.20470 | 32405 ft | 525 kts | 55° |
| 2026-05-06 09:40 | 29.97228 | -12.16975 | 32675 ft | 527 kts | 55° |
| 2026-05-06 09:40 | 30.01330 | -12.09981 | 33141 ft | 532 kts | 55° |
| 2026-05-06 09:41 | 30.03447 | -12.06405 | 33374 ft | 535 kts | 55° |
| 2026-05-06 09:41 | 30.05527 | -12.02889 | 33615 ft | 537 kts | 55° |
| 2026-05-06 09:41 | 30.07637 | -11.99317 | 33846 ft | 539 kts | 55° |
| 2026-05-06 09:41 | 30.09751 | -11.95732 | 34061 ft | 542 kts | 55° |
| 2026-05-06 09:42 | 30.11871 | -11.92131 | 34299 ft | 543 kts | 56° |
| 2026-05-06 09:42 | 30.13996 | -11.88518 | 34589 ft | 544 kts | 56° |
| 2026-05-06 09:42 | 30.16124 | -11.84897 | 34819 ft | 545 kts | 56° |
| 2026-05-06 09:42 | 30.18250 | -11.81273 | 35057 ft | 546 kts | 56° |
| 2026-05-06 09:43 | 30.20386 | -11.77631 | 35312 ft | 547 kts | 56° |
| 2026-05-06 09:43 | 30.22526 | -11.74007 | 35619 ft | 545 kts | 55° |
| 2026-05-06 09:43 | 30.24660 | -11.70391 | 35933 ft | 544 kts | 55° |
| 2026-05-06 09:43 | 30.26798 | -11.66759 | 35969 ft | 548 kts | 55° |
| 2026-05-06 09:44 | 30.31074 | -11.59475 | 35970 ft | 545 kts | 55° |
| 2026-05-06 09:44 | 30.35313 | -11.52232 | 35975 ft | 542 kts | 55° |
| 2026-05-06 09:45 | 30.39544 | -11.44988 | 35988 ft | 542 kts | 56° |
| 2026-05-06 09:45 | 30.43752 | -11.37769 | 35987 ft | 540 kts | 56° |
| 2026-05-06 09:46 | 30.47956 | -11.30543 | 35984 ft | 539 kts | 56° |
| 2026-05-06 09:46 | 30.52142 | -11.23333 | 35982 ft | 539 kts | 56° |
| 2026-05-06 09:47 | 30.56320 | -11.16125 | 35980 ft | 538 kts | 56° |
| 2026-05-06 09:47 | 30.60489 | -11.08916 | 35971 ft | 538 kts | 56° |
| 2026-05-06 09:48 | 30.64649 | -11.01713 | 35967 ft | 538 kts | 56° |
| 2026-05-06 09:48 | 30.68802 | -10.94507 | 35967 ft | 536 kts | 56° |
| 2026-05-06 09:49 | 30.72952 | -10.87294 | 35967 ft | 537 kts | 56° |
| 2026-05-06 09:49 | 30.77093 | -10.80084 | 35968 ft | 535 kts | 56° |
| 2026-05-06 09:50 | 30.81226 | -10.72873 | 35969 ft | 536 kts | 56° |
| 2026-05-06 09:50 | 30.85354 | -10.65660 | 35970 ft | 536 kts | 56° |
| 2026-05-06 09:51 | 30.89503 | -10.58394 | 35971 ft | 536 kts | 56° |
| 2026-05-06 09:51 | 30.93623 | -10.51167 | 35972 ft | 535 kts | 56° |
| 2026-05-06 09:52 | 30.97705 | -10.43991 | 35973 ft | 535 kts | 56° |
| 2026-05-06 09:52 | 31.01812 | -10.36763 | 35976 ft | 533 kts | 56° |
| 2026-05-06 09:53 | 31.05903 | -10.29548 | 35978 ft | 534 kts | 56° |
| 2026-05-06 09:53 | 31.09994 | -10.22319 | 35980 ft | 533 kts | 56° |
| 2026-05-06 09:54 | 31.14068 | -10.15107 | 35982 ft | 531 kts | 56° |
| 2026-05-06 09:54 | 31.18123 | -10.07915 | 35984 ft | 530 kts | 56° |
| 2026-05-06 09:55 | 31.22173 | -10.00717 | 35987 ft | 529 kts | 56° |
| 2026-05-06 09:55 | 31.26243 | -9.93509 | 35990 ft | 533 kts | 56° |
| 2026-05-06 09:56 | 31.30297 | -9.86275 | 35991 ft | 534 kts | 56° |
| 2026-05-06 09:56 | 31.34391 | -9.78944 | 35992 ft | 532 kts | 56° |
| 2026-05-06 09:57 | 31.38486 | -9.71815 | 35992 ft | 531 kts | 52° |
| 2026-05-06 09:57 | 31.43408 | -9.65425 | 35991 ft | 528 kts | 39° |
| 2026-05-06 09:58 | 31.49243 | -9.59988 | 35994 ft | 525 kts | 33° |
| 2026-05-06 09:58 | 31.55047 | -9.54786 | 35993 ft | 524 kts | 34° |
| 2026-05-06 09:59 | 31.60800 | -9.49535 | 35992 ft | 524 kts | 34° |
| 2026-05-06 09:59 | 31.66520 | -9.44266 | 35992 ft | 525 kts | 34° |
| 2026-05-06 10:00 | 31.71340 | -9.39830 | 35993 ft | 526 kts | 34° |
| 2026-05-06 10:00 | 31.78051 | -9.33623 | 35995 ft | 526 kts | 34° |
| 2026-05-06 10:01 | 31.82839 | -9.29178 | 35995 ft | 527 kts | 34° |
| 2026-05-06 10:01 | 31.88599 | -9.23819 | 35996 ft | 528 kts | 34° |
| 2026-05-06 10:02 | 31.94362 | -9.18445 | 35996 ft | 529 kts | 34° |
| 2026-05-06 10:02 | 32.00144 | -9.13048 | 35997 ft | 530 kts | 34° |
| 2026-05-06 10:03 | 32.05962 | -9.07620 | 35998 ft | 526 kts | 34° |
| 2026-05-06 10:03 | 32.11660 | -9.02274 | 35997 ft | 523 kts | 35° |
| 2026-05-06 10:04 | 32.17331 | -8.96942 | 35996 ft | 526 kts | 35° |
| 2026-05-06 10:04 | 32.23068 | -8.91542 | 35999 ft | 526 kts | 34° |
| 2026-05-06 10:05 | 32.28835 | -8.86103 | 35999 ft | 527 kts | 34° |
| 2026-05-06 10:05 | 32.34565 | -8.80688 | 36000 ft | 528 kts | 34° |
| 2026-05-06 10:06 | 32.40301 | -8.75253 | 36001 ft | 529 kts | 35° |
| 2026-05-06 10:06 | 32.46034 | -8.69815 | 36002 ft | 529 kts | 35° |
| 2026-05-06 10:07 | 32.51789 | -8.64357 | 36003 ft | 529 kts | 34° |
| 2026-05-06 10:07 | 32.57522 | -8.58943 | 36003 ft | 529 kts | 34° |
| 2026-05-06 10:08 | 32.63303 | -8.53441 | 35995 ft | 529 kts | 35° |
| 2026-05-06 10:08 | 32.69039 | -8.47962 | 35995 ft | 527 kts | 35° |
| 2026-05-06 10:09 | 32.74744 | -8.42507 | 35994 ft | 526 kts | 35° |
| 2026-05-06 10:09 | 32.80443 | -8.37071 | 35994 ft | 525 kts | 35° |
| 2026-05-06 10:10 | 32.86122 | -8.31636 | 35994 ft | 523 kts | 35° |
| 2026-05-06 10:10 | 32.91778 | -8.26201 | 35995 ft | 522 kts | 35° |
| 2026-05-06 10:11 | 32.97415 | -8.20777 | 35994 ft | 519 kts | 36° |
| 2026-05-06 10:11 | 33.03020 | -8.15374 | 35994 ft | 517 kts | 36° |
| 2026-05-06 10:12 | 33.08613 | -8.09974 | 35995 ft | 515 kts | 36° |
| 2026-05-06 10:12 | 33.14190 | -8.04577 | 35994 ft | 512 kts | 36° |
| 2026-05-06 10:13 | 33.19714 | -7.99220 | 35992 ft | 510 kts | 36° |
| 2026-05-06 10:13 | 33.25235 | -7.93857 | 35993 ft | 513 kts | 36° |
| 2026-05-06 10:14 | 33.30817 | -7.88466 | 35993 ft | 510 kts | 36° |
| 2026-05-06 10:14 | 33.36301 | -7.83145 | 35994 ft | 507 kts | 36° |
| 2026-05-06 10:15 | 33.41744 | -7.77835 | 35994 ft | 506 kts | 36° |
| 2026-05-06 10:15 | 33.47191 | -7.72508 | 35994 ft | 505 kts | 36° |
| 2026-05-06 10:16 | 33.49730 | -7.69595 | 35985 ft | 509 kts | 47° |
| 2026-05-06 10:16 | 33.51792 | -7.66071 | 35989 ft | 510 kts | 60° |
| 2026-05-06 10:16 | 33.53215 | -7.62257 | 35993 ft | 509 kts | 71° |
| 2026-05-06 10:16 | 33.54134 | -7.58173 | 36000 ft | 508 kts | 79° |
| 2026-05-06 10:17 | 33.55260 | -7.49824 | 35996 ft | 508 kts | 83° |
| 2026-05-06 10:17 | 33.56453 | -7.41452 | 35994 ft | 510 kts | 82° |
| 2026-05-06 10:18 | 33.57740 | -7.33072 | 35994 ft | 512 kts | 82° |
| 2026-05-06 10:18 | 33.59083 | -7.24672 | 35994 ft | 513 kts | 81° |
| 2026-05-06 10:19 | 33.60457 | -7.16245 | 35993 ft | 515 kts | 82° |